sensor_id;sensor_type;location;lat;lon;timestamp;temperature;humidity
66835;HTU21D;53743;51.100;5.874;2023-08-31T00:00:17;14.04;90.98
66835;HTU21D;53743;51.100;5.874;2023-08-31T00:01:19;14.07;91.01
66835;HTU21D;53743;51.100;5.874;2023-08-31T00:02:20;14.07;90.89
66835;HTU21D;53743;51.100;5.874;2023-08-31T00:03:22;14.07;90.82
66835;HTU21D;53743;51.100;5.874;2023-08-31T00:04:23;14.07;90.85
66835;HTU21D;53743;51.100;5.874;2023-08-31T00:05:25;14.06;90.93
66835;HTU21D;53743;51.100;5.874;2023-08-31T00:06:31;14.06;91.00
66835;HTU21D;53743;51.100;5.874;2023-08-31T00:07:33;14.03;90.70
66835;HTU21D;53743;51.100;5.874;2023-08-31T00:08:34;14.00;90.83
66835;HTU21D;53743;51.100;5.874;2023-08-31T00:09:36;14.00;91.08
66835;HTU21D;53743;51.100;5.874;2023-08-31T00:10:38;13.99;91.08
66835;HTU21D;53743;51.100;5.874;2023-08-31T00:11:40;14.01;91.02
66835;HTU21D;53743;51.100;5.874;2023-08-31T00:12:41;13.99;90.57
66835;HTU21D;53743;51.100;5.874;2023-08-31T00:13:43;13.97;90.83
66835;HTU21D;53743;51.100;5.874;2023-08-31T00:14:44;13.95;90.68
66835;HTU21D;53743;51.100;5.874;2023-08-31T00:15:47;13.95;91.08
66835;HTU21D;53743;51.100;5.874;2023-08-31T00:16:49;13.95;90.93
66835;HTU21D;53743;51.100;5.874;2023-08-31T00:17:51;13.92;90.98
66835;HTU21D;53743;51.100;5.874;2023-08-31T00:18:52;13.89;91.08
66835;HTU21D;53743;51.100;5.874;2023-08-31T00:19:54;13.91;90.92
66835;HTU21D;53743;51.100;5.874;2023-08-31T00:20:55;13.89;90.92
66835;HTU21D;53743;51.100;5.874;2023-08-31T00:21:58;13.88;91.04
66835;HTU21D;53743;51.100;5.874;2023-08-31T00:22:59;13.86;90.99
66835;HTU21D;53743;51.100;5.874;2023-08-31T00:24:01;13.88;91.02
66835;HTU21D;53743;51.100;5.874;2023-08-31T00:25:03;13.85;91.06
66835;HTU21D;53743;51.100;5.874;2023-08-31T00:26:07;13.83;90.77
66835;HTU21D;53743;51.100;5.874;2023-08-31T00:27:09;13.83;90.76
66835;HTU21D;53743;51.100;5.874;2023-08-31T00:28:12;13.83;90.72
66835;HTU21D;53743;51.100;5.874;2023-08-31T00:29:16;13.83;90.78
66835;HTU21D;53743;51.100;5.874;2023-08-31T00:30:18;13.79;90.96
66835;HTU21D;53743;51.100;5.874;2023-08-31T00:31:21;13.80;90.56
66835;HTU21D;53743;51.100;5.874;2023-08-31T00:32:23;13.77;90.58
66835;HTU21D;53743;51.100;5.874;2023-08-31T00:33:25;13.74;90.73
66835;HTU21D;53743;51.100;5.874;2023-08-31T00:34:27;13.74;90.88
66835;HTU21D;53743;51.100;5.874;2023-08-31T00:35:28;13.74;90.83
66835;HTU21D;53743;51.100;5.874;2023-08-31T00:36:31;13.70;91.01
66835;HTU21D;53743;51.100;5.874;2023-08-31T00:37:34;13.68;90.79
66835;HTU21D;53743;51.100;5.874;2023-08-31T00:38:36;13.66;90.92
66835;HTU21D;53743;51.100;5.874;2023-08-31T00:39:37;13.65;91.11
66835;HTU21D;53743;51.100;5.874;2023-08-31T00:40:39;13.64;91.21
66835;HTU21D;53743;51.100;5.874;2023-08-31T00:41:42;13.63;91.23
66835;HTU21D;53743;51.100;5.874;2023-08-31T00:42:46;13.64;91.35
66835;HTU21D;53743;51.100;5.874;2023-08-31T00:43:47;13.60;91.33
66835;HTU21D;53743;51.100;5.874;2023-08-31T00:44:49;13.61;91.29
66835;HTU21D;53743;51.100;5.874;2023-08-31T00:45:54;13.63;91.23
66835;HTU21D;53743;51.100;5.874;2023-08-31T00:47:00;13.60;91.09
66835;HTU21D;53743;51.100;5.874;2023-08-31T00:48:04;13.60;91.26
66835;HTU21D;53743;51.100;5.874;2023-08-31T00:49:07;13.61;90.95
66835;HTU21D;53743;51.100;5.874;2023-08-31T00:50:10;13.58;90.95
66835;HTU21D;53743;51.100;5.874;2023-08-31T00:51:12;13.58;91.13
66835;HTU21D;53743;51.100;5.874;2023-08-31T00:52:13;13.54;90.99
66835;HTU21D;53743;51.100;5.874;2023-08-31T00:53:17;13.55;91.06
66835;HTU21D;53743;51.100;5.874;2023-08-31T00:54:19;13.55;91.21
66835;HTU21D;53743;51.100;5.874;2023-08-31T00:55:22;13.56;90.91
66835;HTU21D;53743;51.100;5.874;2023-08-31T00:56:24;13.55;90.67
66835;HTU21D;53743;51.100;5.874;2023-08-31T00:57:27;13.52;91.11
66835;HTU21D;53743;51.100;5.874;2023-08-31T00:58:29;13.49;91.20
66835;HTU21D;53743;51.100;5.874;2023-08-31T00:59:31;13.49;91.30
66835;HTU21D;53743;51.100;5.874;2023-08-31T01:02:12;13.47;91.48
66835;HTU21D;53743;51.100;5.874;2023-08-31T01:03:26;13.45;91.56
66835;HTU21D;53743;51.100;5.874;2023-08-31T01:04:47;13.47;91.75
66835;HTU21D;53743;51.100;5.874;2023-08-31T01:06:09;13.46;91.58
66835;HTU21D;53743;51.100;5.874;2023-08-31T01:07:31;13.46;91.43
66835;HTU21D;53743;51.100;5.874;2023-08-31T01:08:50;13.40;91.63
66835;HTU21D;53743;51.100;5.874;2023-08-31T01:10:17;13.43;91.50
66835;HTU21D;53743;51.100;5.874;2023-08-31T01:11:37;13.40;91.61
66835;HTU21D;53743;51.100;5.874;2023-08-31T01:12:52;13.44;91.38
66835;HTU21D;53743;51.100;5.874;2023-08-31T01:14:02;13.39;91.67
66835;HTU21D;53743;51.100;5.874;2023-08-31T01:15:13;13.37;91.80
66835;HTU21D;53743;51.100;5.874;2023-08-31T01:16:17;13.36;92.00
66835;HTU21D;53743;51.100;5.874;2023-08-31T01:17:23;13.36;92.08
66835;HTU21D;53743;51.100;5.874;2023-08-31T01:18:28;13.35;92.24
66835;HTU21D;53743;51.100;5.874;2023-08-31T01:19:48;13.36;92.19
66835;HTU21D;53743;51.100;5.874;2023-08-31T01:20:58;13.36;92.22
66835;HTU21D;53743;51.100;5.874;2023-08-31T01:22:13;13.34;92.14
66835;HTU21D;53743;51.100;5.874;2023-08-31T01:23:31;13.36;92.04
66835;HTU21D;53743;51.100;5.874;2023-08-31T01:24:47;13.30;92.08
66835;HTU21D;53743;51.100;5.874;2023-08-31T01:25:49;13.31;92.13
66835;HTU21D;53743;51.100;5.874;2023-08-31T01:26:53;13.34;91.82
66835;HTU21D;53743;51.100;5.874;2023-08-31T01:27:55;13.30;92.07
66835;HTU21D;53743;51.100;5.874;2023-08-31T01:28:58;13.25;92.18
66835;HTU21D;53743;51.100;5.874;2023-08-31T01:29:59;13.23;92.37
66835;HTU21D;53743;51.100;5.874;2023-08-31T01:31:03;13.20;92.57
66835;HTU21D;53743;51.100;5.874;2023-08-31T01:32:06;13.19;92.54
66835;HTU21D;53743;51.100;5.874;2023-08-31T01:33:09;13.19;92.67
66835;HTU21D;53743;51.100;5.874;2023-08-31T01:34:10;13.20;92.65
66835;HTU21D;53743;51.100;5.874;2023-08-31T01:35:16;13.19;92.70
66835;HTU21D;53743;51.100;5.874;2023-08-31T01:36:28;13.18;92.50
66835;HTU21D;53743;51.100;5.874;2023-08-31T01:37:38;13.16;92.69
66835;HTU21D;53743;51.100;5.874;2023-08-31T01:38:50;13.14;93.06
66835;HTU21D;53743;51.100;5.874;2023-08-31T01:40:03;13.12;92.90
66835;HTU21D;53743;51.100;5.874;2023-08-31T01:41:17;13.14;92.88
66835;HTU21D;53743;51.100;5.874;2023-08-31T01:42:26;13.12;93.01
66835;HTU21D;53743;51.100;5.874;2023-08-31T01:43:31;13.10;93.08
66835;HTU21D;53743;51.100;5.874;2023-08-31T01:44:36;13.12;93.02
66835;HTU21D;53743;51.100;5.874;2023-08-31T01:45:40;13.10;93.24
66835;HTU21D;53743;51.100;5.874;2023-08-31T01:46:46;13.09;93.22
66835;HTU21D;53743;51.100;5.874;2023-08-31T01:47:52;13.11;93.17
66835;HTU21D;53743;51.100;5.874;2023-08-31T01:48:54;13.12;93.10
66835;HTU21D;53743;51.100;5.874;2023-08-31T01:49:55;13.12;92.98
66835;HTU21D;53743;51.100;5.874;2023-08-31T01:50:58;13.11;92.93
66835;HTU21D;53743;51.100;5.874;2023-08-31T01:52:00;13.12;93.01
66835;HTU21D;53743;51.100;5.874;2023-08-31T01:53:03;13.10;93.04
66835;HTU21D;53743;51.100;5.874;2023-08-31T01:54:06;13.12;92.94
66835;HTU21D;53743;51.100;5.874;2023-08-31T01:55:09;13.10;93.01
66835;HTU21D;53743;51.100;5.874;2023-08-31T01:56:10;13.09;93.08
66835;HTU21D;53743;51.100;5.874;2023-08-31T01:57:12;13.10;93.16
66835;HTU21D;53743;51.100;5.874;2023-08-31T01:58:33;13.09;92.99
66835;HTU21D;53743;51.100;5.874;2023-08-31T01:59:35;13.09;93.14
66835;HTU21D;53743;51.100;5.874;2023-08-31T02:00:36;13.09;93.03
66835;HTU21D;53743;51.100;5.874;2023-08-31T02:01:39;13.11;93.12
66835;HTU21D;53743;51.100;5.874;2023-08-31T02:02:40;13.09;93.00
66835;HTU21D;53743;51.100;5.874;2023-08-31T02:03:42;13.08;92.88
66835;HTU21D;53743;51.100;5.874;2023-08-31T02:04:44;13.07;93.10
66835;HTU21D;53743;51.100;5.874;2023-08-31T02:05:45;13.07;93.07
66835;HTU21D;53743;51.100;5.874;2023-08-31T02:06:49;13.08;92.98
66835;HTU21D;53743;51.100;5.874;2023-08-31T02:07:50;13.04;93.10
66835;HTU21D;53743;51.100;5.874;2023-08-31T02:08:52;13.03;93.25
66835;HTU21D;53743;51.100;5.874;2023-08-31T02:09:54;13.02;93.25
66835;HTU21D;53743;51.100;5.874;2023-08-31T02:10:56;13.03;93.11
66835;HTU21D;53743;51.100;5.874;2023-08-31T02:11:57;13.02;92.98
66835;HTU21D;53743;51.100;5.874;2023-08-31T02:13:00;13.02;93.19
66835;HTU21D;53743;51.100;5.874;2023-08-31T02:14:02;13.00;93.22
66835;HTU21D;53743;51.100;5.874;2023-08-31T02:15:05;12.99;93.11
66835;HTU21D;53743;51.100;5.874;2023-08-31T02:16:07;13.01;93.16
66835;HTU21D;53743;51.100;5.874;2023-08-31T02:17:10;13.01;93.09
66835;HTU21D;53743;51.100;5.874;2023-08-31T02:18:11;13.02;93.18
66835;HTU21D;53743;51.100;5.874;2023-08-31T02:19:13;13.01;93.06
66835;HTU21D;53743;51.100;5.874;2023-08-31T02:20:14;13.03;93.19
66835;HTU21D;53743;51.100;5.874;2023-08-31T02:21:16;13.02;93.07
66835;HTU21D;53743;51.100;5.874;2023-08-31T02:22:18;13.01;93.07
66835;HTU21D;53743;51.100;5.874;2023-08-31T02:23:22;12.99;93.22
66835;HTU21D;53743;51.100;5.874;2023-08-31T02:24:23;12.99;93.23
66835;HTU21D;53743;51.100;5.874;2023-08-31T02:25:27;12.96;93.36
66835;HTU21D;53743;51.100;5.874;2023-08-31T02:26:29;12.93;93.48
66835;HTU21D;53743;51.100;5.874;2023-08-31T02:27:31;12.91;93.55
66835;HTU21D;53743;51.100;5.874;2023-08-31T02:28:32;12.88;93.71
66835;HTU21D;53743;51.100;5.874;2023-08-31T02:29:34;12.88;93.78
66835;HTU21D;53743;51.100;5.874;2023-08-31T02:30:35;12.85;93.82
66835;HTU21D;53743;51.100;5.874;2023-08-31T02:31:40;12.82;94.10
66835;HTU21D;53743;51.100;5.874;2023-08-31T02:32:42;12.87;93.98
66835;HTU21D;53743;51.100;5.874;2023-08-31T02:33:46;12.86;93.82
66835;HTU21D;53743;51.100;5.874;2023-08-31T02:34:47;12.85;93.91
66835;HTU21D;53743;51.100;5.874;2023-08-31T02:35:49;12.82;94.01
66835;HTU21D;53743;51.100;5.874;2023-08-31T02:36:51;12.84;94.10
66835;HTU21D;53743;51.100;5.874;2023-08-31T02:37:53;12.86;93.91
66835;HTU21D;53743;51.100;5.874;2023-08-31T02:38:54;12.84;93.95
66835;HTU21D;53743;51.100;5.874;2023-08-31T02:39:56;12.82;94.19
66835;HTU21D;53743;51.100;5.874;2023-08-31T02:40:58;12.84;93.99
66835;HTU21D;53743;51.100;5.874;2023-08-31T02:42:00;12.79;94.43
66835;HTU21D;53743;51.100;5.874;2023-08-31T02:43:02;12.79;94.37
66835;HTU21D;53743;51.100;5.874;2023-08-31T02:44:04;12.76;94.52
66835;HTU21D;53743;51.100;5.874;2023-08-31T02:45:06;12.76;94.50
66835;HTU21D;53743;51.100;5.874;2023-08-31T02:46:08;12.77;94.59
66835;HTU21D;53743;51.100;5.874;2023-08-31T02:47:10;12.78;94.56
66835;HTU21D;53743;51.100;5.874;2023-08-31T02:48:12;12.76;94.55
66835;HTU21D;53743;51.100;5.874;2023-08-31T02:49:14;12.78;94.75
66835;HTU21D;53743;51.100;5.874;2023-08-31T02:50:16;12.78;94.69
66835;HTU21D;53743;51.100;5.874;2023-08-31T02:51:17;12.79;94.41
66835;HTU21D;53743;51.100;5.874;2023-08-31T02:52:19;12.78;94.45
66835;HTU21D;53743;51.100;5.874;2023-08-31T02:53:20;12.75;94.70
66835;HTU21D;53743;51.100;5.874;2023-08-31T02:54:22;12.73;94.81
66835;HTU21D;53743;51.100;5.874;2023-08-31T02:55:23;12.73;94.78
66835;HTU21D;53743;51.100;5.874;2023-08-31T02:56:27;12.74;94.87
66835;HTU21D;53743;51.100;5.874;2023-08-31T02:57:28;12.75;94.72
66835;HTU21D;53743;51.100;5.874;2023-08-31T02:58:31;12.75;94.70
66835;HTU21D;53743;51.100;5.874;2023-08-31T02:59:32;12.75;94.71
66835;HTU21D;53743;51.100;5.874;2023-08-31T03:00:36;12.67;95.42
66835;HTU21D;53743;51.100;5.874;2023-08-31T03:01:40;12.69;95.25
66835;HTU21D;53743;51.100;5.874;2023-08-31T03:02:42;12.70;95.23
66835;HTU21D;53743;51.100;5.874;2023-08-31T03:03:44;12.71;95.17
66835;HTU21D;53743;51.100;5.874;2023-08-31T03:04:47;12.71;95.23
66835;HTU21D;53743;51.100;5.874;2023-08-31T03:05:55;12.67;95.21
66835;HTU21D;53743;51.100;5.874;2023-08-31T03:06:56;12.69;95.41
66835;HTU21D;53743;51.100;5.874;2023-08-31T03:07:59;12.70;95.16
66835;HTU21D;53743;51.100;5.874;2023-08-31T03:09:01;12.71;95.41
66835;HTU21D;53743;51.100;5.874;2023-08-31T03:10:05;12.70;95.24
66835;HTU21D;53743;51.100;5.874;2023-08-31T03:11:08;12.69;95.40
66835;HTU21D;53743;51.100;5.874;2023-08-31T03:12:11;12.69;95.43
66835;HTU21D;53743;51.100;5.874;2023-08-31T03:13:13;12.66;95.50
66835;HTU21D;53743;51.100;5.874;2023-08-31T03:14:15;12.67;95.46
66835;HTU21D;53743;51.100;5.874;2023-08-31T03:15:16;12.67;95.54
66835;HTU21D;53743;51.100;5.874;2023-08-31T03:16:18;12.67;95.37
66835;HTU21D;53743;51.100;5.874;2023-08-31T03:17:19;12.66;95.38
66835;HTU21D;53743;51.100;5.874;2023-08-31T03:18:21;12.65;95.43
66835;HTU21D;53743;51.100;5.874;2023-08-31T03:19:22;12.67;95.40
66835;HTU21D;53743;51.100;5.874;2023-08-31T03:20:25;12.70;95.26
66835;HTU21D;53743;51.100;5.874;2023-08-31T03:21:27;12.66;95.23
66835;HTU21D;53743;51.100;5.874;2023-08-31T03:22:29;12.66;95.45
66835;HTU21D;53743;51.100;5.874;2023-08-31T03:23:30;12.65;95.57
66835;HTU21D;53743;51.100;5.874;2023-08-31T03:24:32;12.63;95.68
66835;HTU21D;53743;51.100;5.874;2023-08-31T03:25:33;12.61;95.97
66835;HTU21D;53743;51.100;5.874;2023-08-31T03:26:36;12.60;95.89
66835;HTU21D;53743;51.100;5.874;2023-08-31T03:27:39;12.58;96.14
66835;HTU21D;53743;51.100;5.874;2023-08-31T03:28:42;12.58;96.11
66835;HTU21D;53743;51.100;5.874;2023-08-31T03:29:43;12.57;96.13
66835;HTU21D;53743;51.100;5.874;2023-08-31T03:30:45;12.56;96.08
66835;HTU21D;53743;51.100;5.874;2023-08-31T03:31:46;12.57;96.13
66835;HTU21D;53743;51.100;5.874;2023-08-31T03:32:50;12.57;96.07
66835;HTU21D;53743;51.100;5.874;2023-08-31T03:33:51;12.58;96.04
66835;HTU21D;53743;51.100;5.874;2023-08-31T03:34:53;12.57;96.05
66835;HTU21D;53743;51.100;5.874;2023-08-31T03:36:00;12.58;95.97
66835;HTU21D;53743;51.100;5.874;2023-08-31T03:37:05;12.58;96.04
66835;HTU21D;53743;51.100;5.874;2023-08-31T03:38:07;12.58;96.23
66835;HTU21D;53743;51.100;5.874;2023-08-31T03:39:10;12.57;96.26
66835;HTU21D;53743;51.100;5.874;2023-08-31T03:40:11;12.56;96.18
66835;HTU21D;53743;51.100;5.874;2023-08-31T03:41:13;12.56;96.27
66835;HTU21D;53743;51.100;5.874;2023-08-31T03:42:14;12.52;96.40
66835;HTU21D;53743;51.100;5.874;2023-08-31T03:43:17;12.51;96.59
66835;HTU21D;53743;51.100;5.874;2023-08-31T03:44:20;12.51;96.72
66835;HTU21D;53743;51.100;5.874;2023-08-31T03:45:24;12.51;96.64
66835;HTU21D;53743;51.100;5.874;2023-08-31T03:46:25;12.52;96.46
66835;HTU21D;53743;51.100;5.874;2023-08-31T03:47:28;12.50;96.75
66835;HTU21D;53743;51.100;5.874;2023-08-31T03:48:29;12.50;96.64
66835;HTU21D;53743;51.100;5.874;2023-08-31T03:49:31;12.52;96.52
66835;HTU21D;53743;51.100;5.874;2023-08-31T03:50:33;12.55;96.42
66835;HTU21D;53743;51.100;5.874;2023-08-31T03:51:35;12.53;96.51
66835;HTU21D;53743;51.100;5.874;2023-08-31T03:52:37;12.52;96.39
66835;HTU21D;53743;51.100;5.874;2023-08-31T03:53:38;12.50;96.64
66835;HTU21D;53743;51.100;5.874;2023-08-31T03:54:40;12.51;96.63
66835;HTU21D;53743;51.100;5.874;2023-08-31T03:55:42;12.49;96.80
66835;HTU21D;53743;51.100;5.874;2023-08-31T03:56:44;12.49;96.76
66835;HTU21D;53743;51.100;5.874;2023-08-31T03:57:46;12.50;96.70
66835;HTU21D;53743;51.100;5.874;2023-08-31T03:58:55;12.50;96.71
66835;HTU21D;53743;51.100;5.874;2023-08-31T03:59:56;12.49;96.76
66835;HTU21D;53743;51.100;5.874;2023-08-31T04:00:58;12.50;97.00
66835;HTU21D;53743;51.100;5.874;2023-08-31T04:01:59;12.50;96.71
66835;HTU21D;53743;51.100;5.874;2023-08-31T04:03:04;12.50;96.78
66835;HTU21D;53743;51.100;5.874;2023-08-31T04:04:05;12.48;96.97
66835;HTU21D;53743;51.100;5.874;2023-08-31T04:05:08;12.47;96.84
66835;HTU21D;53743;51.100;5.874;2023-08-31T04:06:10;12.45;96.98
66835;HTU21D;53743;51.100;5.874;2023-08-31T04:07:15;12.46;97.16
66835;HTU21D;53743;51.100;5.874;2023-08-31T04:08:16;12.47;97.12
66835;HTU21D;53743;51.100;5.874;2023-08-31T04:09:18;12.49;97.00
66835;HTU21D;53743;51.100;5.874;2023-08-31T04:10:19;12.48;96.99
66835;HTU21D;53743;51.100;5.874;2023-08-31T04:11:22;12.46;96.98
66835;HTU21D;53743;51.100;5.874;2023-08-31T04:12:23;12.47;97.03
66835;HTU21D;53743;51.100;5.874;2023-08-31T04:13:26;12.47;97.14
66835;HTU21D;53743;51.100;5.874;2023-08-31T04:14:29;12.46;97.16
66835;HTU21D;53743;51.100;5.874;2023-08-31T04:15:32;12.47;97.24
66835;HTU21D;53743;51.100;5.874;2023-08-31T04:16:33;12.47;97.14
66835;HTU21D;53743;51.100;5.874;2023-08-31T04:17:35;12.46;97.24
66835;HTU21D;53743;51.100;5.874;2023-08-31T04:18:36;12.48;97.28
66835;HTU21D;53743;51.100;5.874;2023-08-31T04:19:37;12.49;97.22
66835;HTU21D;53743;51.100;5.874;2023-08-31T04:20:47;12.48;97.15
66835;HTU21D;53743;51.100;5.874;2023-08-31T04:21:50;12.48;97.14
66835;HTU21D;53743;51.100;5.874;2023-08-31T04:22:52;12.46;97.20
66835;HTU21D;53743;51.100;5.874;2023-08-31T04:23:53;12.45;97.40
66835;HTU21D;53743;51.100;5.874;2023-08-31T04:24:55;12.45;97.53
66835;HTU21D;53743;51.100;5.874;2023-08-31T04:25:56;12.42;97.78
66835;HTU21D;53743;51.100;5.874;2023-08-31T04:26:59;12.42;97.65
66835;HTU21D;53743;51.100;5.874;2023-08-31T04:28:01;12.42;97.79
66835;HTU21D;53743;51.100;5.874;2023-08-31T04:29:03;12.43;97.62
66835;HTU21D;53743;51.100;5.874;2023-08-31T04:30:08;12.43;97.76
66835;HTU21D;53743;51.100;5.874;2023-08-31T04:31:10;12.41;97.83
66835;HTU21D;53743;51.100;5.874;2023-08-31T04:32:12;12.40;98.02
66835;HTU21D;53743;51.100;5.874;2023-08-31T04:33:13;12.42;98.11
66835;HTU21D;53743;51.100;5.874;2023-08-31T04:34:15;12.44;97.81
66835;HTU21D;53743;51.100;5.874;2023-08-31T04:35:16;12.45;97.71
66835;HTU21D;53743;51.100;5.874;2023-08-31T04:36:19;12.45;97.92
66835;HTU21D;53743;51.100;5.874;2023-08-31T04:37:21;12.43;98.01
66835;HTU21D;53743;51.100;5.874;2023-08-31T04:38:23;12.44;98.12
66835;HTU21D;53743;51.100;5.874;2023-08-31T04:39:24;12.43;98.35
66835;HTU21D;53743;51.100;5.874;2023-08-31T04:40:27;12.43;98.41
66835;HTU21D;53743;51.100;5.874;2023-08-31T04:41:28;12.43;98.19
66835;HTU21D;53743;51.100;5.874;2023-08-31T04:42:30;12.46;98.08
66835;HTU21D;53743;51.100;5.874;2023-08-31T04:43:32;12.45;98.35
66835;HTU21D;53743;51.100;5.874;2023-08-31T04:44:34;12.47;98.23
66835;HTU21D;53743;51.100;5.874;2023-08-31T04:45:37;12.48;97.98
66835;HTU21D;53743;51.100;5.874;2023-08-31T04:46:39;12.43;98.53
66835;HTU21D;53743;51.100;5.874;2023-08-31T04:47:40;12.44;98.41
66835;HTU21D;53743;51.100;5.874;2023-08-31T04:48:42;12.46;98.42
66835;HTU21D;53743;51.100;5.874;2023-08-31T04:49:43;12.48;98.47
66835;HTU21D;53743;51.100;5.874;2023-08-31T04:50:44;12.48;98.52
66835;HTU21D;53743;51.100;5.874;2023-08-31T04:51:47;12.52;98.39
66835;HTU21D;53743;51.100;5.874;2023-08-31T04:52:48;12.52;98.12
66835;HTU21D;53743;51.100;5.874;2023-08-31T04:53:49;12.49;98.53
66835;HTU21D;53743;51.100;5.874;2023-08-31T04:54:51;12.52;98.34
66835;HTU21D;53743;51.100;5.874;2023-08-31T04:55:52;12.53;98.38
66835;HTU21D;53743;51.100;5.874;2023-08-31T04:56:55;12.52;98.42
66835;HTU21D;53743;51.100;5.874;2023-08-31T04:57:56;12.55;98.33
66835;HTU21D;53743;51.100;5.874;2023-08-31T04:58:58;12.57;98.40
66835;HTU21D;53743;51.100;5.874;2023-08-31T05:00:00;12.58;98.23
66835;HTU21D;53743;51.100;5.874;2023-08-31T05:01:03;12.59;98.12
66835;HTU21D;53743;51.100;5.874;2023-08-31T05:02:05;12.58;98.07
66835;HTU21D;53743;51.100;5.874;2023-08-31T05:03:06;12.59;98.20
66835;HTU21D;53743;51.100;5.874;2023-08-31T05:04:08;12.62;98.27
66835;HTU21D;53743;51.100;5.874;2023-08-31T05:05:09;12.65;97.97
66835;HTU21D;53743;51.100;5.874;2023-08-31T05:06:11;12.63;98.21
66835;HTU21D;53743;51.100;5.874;2023-08-31T05:07:12;12.64;98.33
66835;HTU21D;53743;51.100;5.874;2023-08-31T05:08:14;12.66;98.23
66835;HTU21D;53743;51.100;5.874;2023-08-31T05:09:16;12.66;98.04
66835;HTU21D;53743;51.100;5.874;2023-08-31T05:10:19;12.70;98.33
66835;HTU21D;53743;51.100;5.874;2023-08-31T05:11:20;12.72;98.20
66835;HTU21D;53743;51.100;5.874;2023-08-31T05:12:21;12.76;98.10
66835;HTU21D;53743;51.100;5.874;2023-08-31T05:13:23;12.75;97.99
66835;HTU21D;53743;51.100;5.874;2023-08-31T05:14:25;12.75;98.10
66835;HTU21D;53743;51.100;5.874;2023-08-31T05:15:27;12.75;98.33
66835;HTU21D;53743;51.100;5.874;2023-08-31T05:16:30;12.77;97.98
66835;HTU21D;53743;51.100;5.874;2023-08-31T05:17:32;12.80;98.14
66835;HTU21D;53743;51.100;5.874;2023-08-31T05:18:34;12.84;97.95
66835;HTU21D;53743;51.100;5.874;2023-08-31T05:19:37;12.85;97.93
66835;HTU21D;53743;51.100;5.874;2023-08-31T05:20:38;12.87;97.90
66835;HTU21D;53743;51.100;5.874;2023-08-31T05:21:40;12.88;97.94
66835;HTU21D;53743;51.100;5.874;2023-08-31T05:22:41;12.89;97.97
66835;HTU21D;53743;51.100;5.874;2023-08-31T05:23:43;12.93;97.85
66835;HTU21D;53743;51.100;5.874;2023-08-31T05:24:44;12.91;97.69
66835;HTU21D;53743;51.100;5.874;2023-08-31T05:25:46;12.94;97.90
66835;HTU21D;53743;51.100;5.874;2023-08-31T05:26:49;12.97;97.87
66835;HTU21D;53743;51.100;5.874;2023-08-31T05:27:51;13.00;97.87
66835;HTU21D;53743;51.100;5.874;2023-08-31T05:28:52;12.99;97.64
66835;HTU21D;53743;51.100;5.874;2023-08-31T05:29:54;13.00;97.93
66835;HTU21D;53743;51.100;5.874;2023-08-31T05:30:57;13.03;97.90
66835;HTU21D;53743;51.100;5.874;2023-08-31T05:32:01;13.09;97.65
66835;HTU21D;53743;51.100;5.874;2023-08-31T05:33:03;13.09;97.56
66835;HTU21D;53743;51.100;5.874;2023-08-31T05:34:06;13.12;97.60
66835;HTU21D;53743;51.100;5.874;2023-08-31T05:35:08;13.17;97.67
66835;HTU21D;53743;51.100;5.874;2023-08-31T05:36:10;13.21;97.55
66835;HTU21D;53743;51.100;5.874;2023-08-31T05:37:11;13.24;97.55
66835;HTU21D;53743;51.100;5.874;2023-08-31T05:38:14;13.27;97.37
66835;HTU21D;53743;51.100;5.874;2023-08-31T05:39:15;13.32;97.32
66835;HTU21D;53743;51.100;5.874;2023-08-31T05:40:18;13.36;97.26
66835;HTU21D;53743;51.100;5.874;2023-08-31T05:41:19;13.40;97.07
66835;HTU21D;53743;51.100;5.874;2023-08-31T05:42:21;13.44;96.97
66835;HTU21D;53743;51.100;5.874;2023-08-31T05:43:23;13.48;96.87
66835;HTU21D;53743;51.100;5.874;2023-08-31T05:44:25;13.50;96.71
66835;HTU21D;53743;51.100;5.874;2023-08-31T05:45:26;13.53;96.56
66835;HTU21D;53743;51.100;5.874;2023-08-31T05:46:28;13.58;96.68
66835;HTU21D;53743;51.100;5.874;2023-08-31T05:47:30;13.63;96.97
66835;HTU21D;53743;51.100;5.874;2023-08-31T05:48:33;13.67;97.07
66835;HTU21D;53743;51.100;5.874;2023-08-31T05:49:35;13.70;97.16
66835;HTU21D;53743;51.100;5.874;2023-08-31T05:50:37;13.76;97.05
66835;HTU21D;53743;51.100;5.874;2023-08-31T05:51:38;13.82;96.88
66835;HTU21D;53743;51.100;5.874;2023-08-31T05:52:40;13.85;96.38
66835;HTU21D;53743;51.100;5.874;2023-08-31T05:53:44;13.89;96.36
66835;HTU21D;53743;51.100;5.874;2023-08-31T05:54:46;13.94;96.12
66835;HTU21D;53743;51.100;5.874;2023-08-31T05:55:47;13.99;95.88
66835;HTU21D;53743;51.100;5.874;2023-08-31T05:56:50;14.00;94.87
66835;HTU21D;53743;51.100;5.874;2023-08-31T05:57:51;14.05;95.43
66835;HTU21D;53743;51.100;5.874;2023-08-31T05:58:53;14.08;95.22
66835;HTU21D;53743;51.100;5.874;2023-08-31T05:59:56;14.14;95.40
66835;HTU21D;53743;51.100;5.874;2023-08-31T06:00:58;14.20;95.43
66835;HTU21D;53743;51.100;5.874;2023-08-31T06:02:00;14.29;95.11
66835;HTU21D;53743;51.100;5.874;2023-08-31T06:03:05;14.36;94.67
66835;HTU21D;53743;51.100;5.874;2023-08-31T06:04:06;14.44;94.48
66835;HTU21D;53743;51.100;5.874;2023-08-31T06:05:09;14.51;94.20
66835;HTU21D;53743;51.100;5.874;2023-08-31T06:06:12;14.59;94.15
66835;HTU21D;53743;51.100;5.874;2023-08-31T06:07:14;14.66;93.90
66835;HTU21D;53743;51.100;5.874;2023-08-31T06:08:15;14.74;93.69
66835;HTU21D;53743;51.100;5.874;2023-08-31T06:09:17;14.82;93.14
66835;HTU21D;53743;51.100;5.874;2023-08-31T06:10:19;14.92;93.30
66835;HTU21D;53743;51.100;5.874;2023-08-31T06:11:21;15.21;94.40
66835;HTU21D;53743;51.100;5.874;2023-08-31T06:12:23;15.80;95.16
66835;HTU21D;53743;51.100;5.874;2023-08-31T06:13:25;16.55;95.19
66835;HTU21D;53743;51.100;5.874;2023-08-31T06:14:26;17.33;91.68
66835;HTU21D;53743;51.100;5.874;2023-08-31T06:15:28;17.93;88.03
66835;HTU21D;53743;51.100;5.874;2023-08-31T06:16:29;18.35;85.50
66835;HTU21D;53743;51.100;5.874;2023-08-31T06:17:31;18.88;83.07
66835;HTU21D;53743;51.100;5.874;2023-08-31T06:18:34;19.48;76.67
66835;HTU21D;53743;51.100;5.874;2023-08-31T06:19:35;19.89;77.11
66835;HTU21D;53743;51.100;5.874;2023-08-31T06:20:39;20.17;75.76
66835;HTU21D;53743;51.100;5.874;2023-08-31T06:21:40;20.50;71.84
66835;HTU21D;53743;51.100;5.874;2023-08-31T06:22:42;20.87;73.12
66835;HTU21D;53743;51.100;5.874;2023-08-31T06:23:43;21.23;67.28
66835;HTU21D;53743;51.100;5.874;2023-08-31T06:24:45;21.58;68.13
66835;HTU21D;53743;51.100;5.874;2023-08-31T06:25:46;21.83;68.61
66835;HTU21D;53743;51.100;5.874;2023-08-31T06:26:48;22.10;58.79
66835;HTU21D;53743;51.100;5.874;2023-08-31T06:27:49;22.25;56.58
66835;HTU21D;53743;51.100;5.874;2023-08-31T06:28:51;22.48;64.18
66835;HTU21D;53743;51.100;5.874;2023-08-31T06:29:53;22.75;64.43
66835;HTU21D;53743;51.100;5.874;2023-08-31T06:30:55;23.07;62.15
66835;HTU21D;53743;51.100;5.874;2023-08-31T06:31:56;23.32;62.25
66835;HTU21D;53743;51.100;5.874;2023-08-31T06:32:58;23.37;58.00